sensor_id;sensor_type;location;lat;lon;timestamp;P1;durP1;ratioP1;P2;durP2;ratioP2
46455;SDS011;64052;47.466;9.094;2022-12-05T00:03:32;14.93;;;9.45;;
46455;SDS011;64052;47.466;9.094;2022-12-05T00:08:34;15.13;;;8.95;;
46455;SDS011;64052;47.466;9.094;2022-12-05T00:13:35;13.82;;;9.68;;
46455;SDS011;64052;47.466;9.094;2022-12-05T00:18:37;13.57;;;8.80;;
46455;SDS011;64052;47.466;9.094;2022-12-05T00:23:38;12.40;;;8.48;;
46455;SDS011;64052;47.466;9.094;2022-12-05T00:28:40;11.07;;;7.68;;
46455;SDS011;64052;47.466;9.094;2022-12-05T00:33:43;11.95;;;7.80;;
46455;SDS011;64052;47.466;9.094;2022-12-05T00:38:45;12.30;;;8.20;;
46455;SDS011;64052;47.466;9.094;2022-12-05T00:43:48;14.65;;;8.65;;
46455;SDS011;64052;47.466;9.094;2022-12-05T00:48:53;13.68;;;8.20;;
46455;SDS011;64052;47.466;9.094;2022-12-05T00:53:57;8.73;;;6.63;;
46455;SDS011;64052;47.466;9.094;2022-12-05T00:59:00;13.18;;;7.90;;
46455;SDS011;64052;47.466;9.094;2022-12-05T01:04:10;11.38;;;7.93;;
46455;SDS011;64052;47.466;9.094;2022-12-05T01:09:14;12.18;;;7.55;;
46455;SDS011;64052;47.466;9.094;2022-12-05T01:14:19;12.07;;;7.95;;
46455;SDS011;64052;47.466;9.094;2022-12-05T01:19:23;11.50;;;7.00;;
46455;SDS011;64052;47.466;9.094;2022-12-05T01:24:29;9.50;;;7.43;;
46455;SDS011;64052;47.466;9.094;2022-12-05T01:29:31;9.95;;;6.00;;
46455;SDS011;64052;47.466;9.094;2022-12-05T01:34:32;11.48;;;7.00;;
46455;SDS011;64052;47.466;9.094;2022-12-05T01:39:34;11.25;;;6.30;;
46455;SDS011;64052;47.466;9.094;2022-12-05T01:49:38;7.85;;;6.43;;
46455;SDS011;64052;47.466;9.094;2022-12-05T01:54:42;7.32;;;6.20;;
46455;SDS011;64052;47.466;9.094;2022-12-05T01:59:48;9.55;;;6.60;;
46455;SDS011;64052;47.466;9.094;2022-12-05T02:05:14;9.35;;;6.03;;
46455;SDS011;64052;47.466;9.094;2022-12-05T02:10:18;8.48;;;6.10;;
46455;SDS011;64052;47.466;9.094;2022-12-05T02:31:09;9.38;;;5.85;;
46455;SDS011;64052;47.466;9.094;2022-12-05T02:36:24;9.65;;;5.90;;
46455;SDS011;64052;47.466;9.094;2022-12-05T02:41:34;9.65;;;5.93;;
46455;SDS011;64052;47.466;9.094;2022-12-05T02:46:40;9.93;;;6.63;;
46455;SDS011;64052;47.466;9.094;2022-12-05T02:51:47;7.93;;;5.28;;
46455;SDS011;64052;47.466;9.094;2022-12-05T02:56:55;9.63;;;6.05;;
46455;SDS011;64052;47.466;9.094;2022-12-05T03:01:58;7.30;;;5.00;;
46455;SDS011;64052;47.466;9.094;2022-12-05T03:07:02;9.32;;;7.05;;
46455;SDS011;64052;47.466;9.094;2022-12-05T03:17:24;8.35;;;5.93;;
46455;SDS011;64052;47.466;9.094;2022-12-05T03:32:44;8.27;;;5.30;;
46455;SDS011;64052;47.466;9.094;2022-12-05T03:43:16;5.90;;;5.22;;
46455;SDS011;64052;47.466;9.094;2022-12-05T03:48:36;7.35;;;5.00;;
46455;SDS011;64052;47.466;9.094;2022-12-05T03:53:48;5.20;;;3.97;;
46455;SDS011;64052;47.466;9.094;2022-12-05T04:04:29;9.43;;;4.70;;
46455;SDS011;64052;47.466;9.094;2022-12-05T04:09:39;5.82;;;4.60;;
46455;SDS011;64052;47.466;9.094;2022-12-05T04:14:46;4.03;;;3.58;;
46455;SDS011;64052;47.466;9.094;2022-12-05T04:19:53;5.82;;;3.95;;
46455;SDS011;64052;47.466;9.094;2022-12-05T04:25:04;5.60;;;4.20;;
46455;SDS011;64052;47.466;9.094;2022-12-05T04:30:12;5.60;;;5.07;;
46455;SDS011;64052;47.466;9.094;2022-12-05T04:35:19;6.90;;;5.28;;
46455;SDS011;64052;47.466;9.094;2022-12-05T04:40:33;8.80;;;5.60;;
46455;SDS011;64052;47.466;9.094;2022-12-05T04:45:38;8.00;;;7.05;;
46455;SDS011;64052;47.466;9.094;2022-12-05T04:50:41;7.80;;;5.72;;
46455;SDS011;64052;47.466;9.094;2022-12-05T04:55:47;8.07;;;5.95;;
46455;SDS011;64052;47.466;9.094;2022-12-05T05:01:09;4.47;;;3.75;;
46455;SDS011;64052;47.466;9.094;2022-12-05T05:06:13;4.75;;;3.50;;
46455;SDS011;64052;47.466;9.094;2022-12-05T05:11:16;5.57;;;4.20;;
46455;SDS011;64052;47.466;9.094;2022-12-05T05:16:24;5.60;;;4.28;;
46455;SDS011;64052;47.466;9.094;2022-12-05T05:21:32;4.80;;;3.40;;
46455;SDS011;64052;47.466;9.094;2022-12-05T05:26:36;3.97;;;3.22;;
46455;SDS011;64052;47.466;9.094;2022-12-05T05:31:40;4.78;;;4.28;;
46455;SDS011;64052;47.466;9.094;2022-12-05T05:36:42;3.28;;;2.97;;
46455;SDS011;64052;47.466;9.094;2022-12-05T05:41:44;3.58;;;2.65;;
46455;SDS011;64052;47.466;9.094;2022-12-05T05:46:45;2.90;;;2.70;;
46455;SDS011;64052;47.466;9.094;2022-12-05T05:51:47;3.38;;;2.70;;
46455;SDS011;64052;47.466;9.094;2022-12-05T05:56:49;2.58;;;2.30;;
46455;SDS011;64052;47.466;9.094;2022-12-05T06:01:50;4.88;;;2.78;;
46455;SDS011;64052;47.466;9.094;2022-12-05T06:06:52;3.35;;;2.83;;
46455;SDS011;64052;47.466;9.094;2022-12-05T06:11:53;3.65;;;2.45;;
46455;SDS011;64052;47.466;9.094;2022-12-05T06:16:54;3.42;;;3.00;;
46455;SDS011;64052;47.466;9.094;2022-12-05T06:21:56;2.95;;;2.63;;
46455;SDS011;64052;47.466;9.094;2022-12-05T06:26:57;4.35;;;3.45;;
46455;SDS011;64052;47.466;9.094;2022-12-05T06:31:59;3.80;;;3.30;;
46455;SDS011;64052;47.466;9.094;2022-12-05T06:43:26;3.30;;;2.95;;
46455;SDS011;64052;47.466;9.094;2022-12-05T06:48:30;3.60;;;2.95;;
46455;SDS011;64052;47.466;9.094;2022-12-05T06:53:32;4.15;;;2.85;;
46455;SDS011;64052;47.466;9.094;2022-12-05T06:58:33;3.63;;;2.80;;
46455;SDS011;64052;47.466;9.094;2022-12-05T07:03:35;2.95;;;2.67;;
46455;SDS011;64052;47.466;9.094;2022-12-05T07:08:37;3.70;;;3.17;;
46455;SDS011;64052;47.466;9.094;2022-12-05T07:13:38;4.15;;;2.80;;
46455;SDS011;64052;47.466;9.094;2022-12-05T07:18:40;4.20;;;2.65;;
46455;SDS011;64052;47.466;9.094;2022-12-05T07:23:42;2.58;;;2.30;;
46455;SDS011;64052;47.466;9.094;2022-12-05T07:28:46;2.60;;;2.40;;
46455;SDS011;64052;47.466;9.094;2022-12-05T07:33:48;5.30;;;4.10;;
46455;SDS011;64052;47.466;9.094;2022-12-05T07:38:54;2.03;;;1.88;;
46455;SDS011;64052;47.466;9.094;2022-12-05T07:43:57;1.90;;;1.70;;
46455;SDS011;64052;47.466;9.094;2022-12-05T07:48:59;2.47;;;2.05;;
46455;SDS011;64052;47.466;9.094;2022-12-05T07:54:01;2.17;;;1.98;;
46455;SDS011;64052;47.466;9.094;2022-12-05T07:59:02;2.53;;;2.33;;
46455;SDS011;64052;47.466;9.094;2022-12-05T08:04:04;1.80;;;1.70;;
46455;SDS011;64052;47.466;9.094;2022-12-05T08:09:09;1.80;;;1.70;;
46455;SDS011;64052;47.466;9.094;2022-12-05T08:14:11;3.50;;;3.05;;
46455;SDS011;64052;47.466;9.094;2022-12-05T08:19:13;2.55;;;2.35;;
46455;SDS011;64052;47.466;9.094;2022-12-05T08:24:14;2.50;;;2.30;;
46455;SDS011;64052;47.466;9.094;2022-12-05T08:29:18;2.53;;;2.33;;
46455;SDS011;64052;47.466;9.094;2022-12-05T08:34:21;1.92;;;1.83;;
46455;SDS011;64052;47.466;9.094;2022-12-05T08:39:22;1.70;;;1.60;;
46455;SDS011;64052;47.466;9.094;2022-12-05T08:44:24;2.10;;;1.90;;
46455;SDS011;64052;47.466;9.094;2022-12-05T08:49:25;3.05;;;2.08;;
46455;SDS011;64052;47.466;9.094;2022-12-05T08:54:27;2.30;;;2.10;;
46455;SDS011;64052;47.466;9.094;2022-12-05T08:59:28;1.80;;;1.70;;
46455;SDS011;64052;47.466;9.094;2022-12-05T09:04:30;2.70;;;2.50;;
46455;SDS011;64052;47.466;9.094;2022-12-05T09:09:31;1.75;;;1.65;;
46455;SDS011;64052;47.466;9.094;2022-12-05T09:14:33;1.90;;;1.80;;
46455;SDS011;64052;47.466;9.094;2022-12-05T09:19:34;1.83;;;1.73;;
46455;SDS011;64052;47.466;9.094;2022-12-05T09:24:36;3.47;;;3.17;;
46455;SDS011;64052;47.466;9.094;2022-12-05T09:29:38;2.30;;;2.10;;
46455;SDS011;64052;47.466;9.094;2022-12-05T09:34:41;2.88;;;2.45;;
46455;SDS011;64052;47.466;9.094;2022-12-05T09:39:43;2.20;;;2.05;;
46455;SDS011;64052;47.466;9.094;2022-12-05T10:00:53;1.95;;;1.80;;
46455;SDS011;64052;47.466;9.094;2022-12-05T10:06:12;2.78;;;2.58;;
46455;SDS011;64052;47.466;9.094;2022-12-05T10:11:26;4.43;;;2.33;;
46455;SDS011;64052;47.466;9.094;2022-12-05T10:16:45;2.55;;;2.05;;
46455;SDS011;64052;47.466;9.094;2022-12-05T10:27:12;3.95;;;2.75;;
46455;SDS011;64052;47.466;9.094;2022-12-05T10:32:23;4.13;;;2.75;;
46455;SDS011;64052;47.466;9.094;2022-12-05T10:37:31;1.73;;;1.63;;
46455;SDS011;64052;47.466;9.094;2022-12-05T10:42:33;2.00;;;1.90;;
46455;SDS011;64052;47.466;9.094;2022-12-05T10:47:36;2.25;;;2.15;;
46455;SDS011;64052;47.466;9.094;2022-12-05T10:52:37;3.42;;;3.00;;
46455;SDS011;64052;47.466;9.094;2022-12-05T10:57:39;2.67;;;2.25;;
46455;SDS011;64052;47.466;9.094;2022-12-05T11:02:41;2.97;;;2.33;;
46455;SDS011;64052;47.466;9.094;2022-12-05T11:07:45;2.42;;;2.20;;
46455;SDS011;64052;47.466;9.094;2022-12-05T11:12:48;2.17;;;1.98;;
46455;SDS011;64052;47.466;9.094;2022-12-05T11:17:50;2.65;;;1.90;;
46455;SDS011;64052;47.466;9.094;2022-12-05T11:22:56;1.63;;;1.52;;
46455;SDS011;64052;47.466;9.094;2022-12-05T11:27:59;2.85;;;2.28;;
46455;SDS011;64052;47.466;9.094;2022-12-05T11:33:21;2.40;;;1.92;;
46455;SDS011;64052;47.466;9.094;2022-12-05T11:38:25;2.05;;;1.88;;
46455;SDS011;64052;47.466;9.094;2022-12-05T11:43:33;1.90;;;1.80;;
46455;SDS011;64052;47.466;9.094;2022-12-05T11:48:45;2.40;;;2.20;;
46455;SDS011;64052;47.466;9.094;2022-12-05T12:05:06;2.00;;;1.80;;
46455;SDS011;64052;47.466;9.094;2022-12-05T12:10:15;2.20;;;2.00;;
46455;SDS011;64052;47.466;9.094;2022-12-05T12:41:05;2.63;;;2.42;;
46455;SDS011;64052;47.466;9.094;2022-12-05T12:51:43;2.58;;;2.20;;
46455;SDS011;64052;47.466;9.094;2022-12-05T13:07:29;3.05;;;2.47;;
46455;SDS011;64052;47.466;9.094;2022-12-05T13:12:36;3.30;;;2.72;;
46455;SDS011;64052;47.466;9.094;2022-12-05T13:17:42;3.25;;;2.80;;
46455;SDS011;64052;47.466;9.094;2022-12-05T13:22:45;2.97;;;2.67;;
46455;SDS011;64052;47.466;9.094;2022-12-05T13:27:52;2.90;;;2.53;;
46455;SDS011;64052;47.466;9.094;2022-12-05T13:32:58;4.45;;;2.80;;
46455;SDS011;64052;47.466;9.094;2022-12-05T13:38:03;2.72;;;2.53;;
46455;SDS011;64052;47.466;9.094;2022-12-05T13:43:05;3.15;;;2.47;;
46455;SDS011;64052;47.466;9.094;2022-12-05T13:48:17;3.40;;;3.10;;
46455;SDS011;64052;47.466;9.094;2022-12-05T14:08:50;3.42;;;3.13;;
46455;SDS011;64052;47.466;9.094;2022-12-05T14:13:53;2.53;;;2.33;;
46455;SDS011;64052;47.466;9.094;2022-12-05T14:29:52;2.90;;;2.58;;
46455;SDS011;64052;47.466;9.094;2022-12-05T14:50:50;6.32;;;4.88;;
46455;SDS011;64052;47.466;9.094;2022-12-05T15:11:23;5.13;;;3.00;;
46455;SDS011;64052;47.466;9.094;2022-12-05T15:16:26;4.35;;;3.60;;
46455;SDS011;64052;47.466;9.094;2022-12-05T15:21:33;4.85;;;4.25;;
46455;SDS011;64052;47.466;9.094;2022-12-05T15:42:27;3.53;;;3.22;;
46455;SDS011;64052;47.466;9.094;2022-12-05T15:47:36;4.25;;;3.75;;
46455;SDS011;64052;47.466;9.094;2022-12-05T15:52:40;4.57;;;3.78;;
46455;SDS011;64052;47.466;9.094;2022-12-05T15:58:04;5.47;;;3.30;;
46455;SDS011;64052;47.466;9.094;2022-12-05T16:03:19;4.43;;;3.75;;
46455;SDS011;64052;47.466;9.094;2022-12-05T16:08:25;4.20;;;3.42;;
46455;SDS011;64052;47.466;9.094;2022-12-05T16:13:27;5.82;;;4.45;;
46455;SDS011;64052;47.466;9.094;2022-12-05T16:18:29;5.88;;;3.92;;
46455;SDS011;64052;47.466;9.094;2022-12-05T16:23:32;3.78;;;3.42;;
46455;SDS011;64052;47.466;9.094;2022-12-05T16:28:33;4.45;;;4.05;;
46455;SDS011;64052;47.466;9.094;2022-12-05T16:33:35;5.43;;;4.03;;
46455;SDS011;64052;47.466;9.094;2022-12-05T16:38:43;7.82;;;7.03;;
46455;SDS011;64052;47.466;9.094;2022-12-05T16:43:45;8.15;;;6.50;;
46455;SDS011;64052;47.466;9.094;2022-12-05T16:49:09;8.00;;;5.55;;
46455;SDS011;64052;47.466;9.094;2022-12-05T16:54:14;5.38;;;4.40;;
46455;SDS011;64052;47.466;9.094;2022-12-05T16:59:23;4.30;;;3.90;;
46455;SDS011;64052;47.466;9.094;2022-12-05T17:04:35;4.77;;;4.23;;
46455;SDS011;64052;47.466;9.094;2022-12-05T17:09:37;4.35;;;3.95;;
46455;SDS011;64052;47.466;9.094;2022-12-05T17:14:38;5.45;;;4.20;;
46455;SDS011;64052;47.466;9.094;2022-12-05T17:19:40;14.90;;;13.52;;
46455;SDS011;64052;47.466;9.094;2022-12-05T17:24:41;6.32;;;5.03;;
46455;SDS011;64052;47.466;9.094;2022-12-05T17:29:43;7.28;;;6.07;;
46455;SDS011;64052;47.466;9.094;2022-12-05T17:34:45;5.15;;;4.50;;
46455;SDS011;64052;47.466;9.094;2022-12-05T17:39:46;4.78;;;4.38;;
46455;SDS011;64052;47.466;9.094;2022-12-05T17:44:48;10.45;;;6.30;;
46455;SDS011;64052;47.466;9.094;2022-12-05T17:49:49;9.05;;;7.30;;
46455;SDS011;64052;47.466;9.094;2022-12-05T17:54:51;7.07;;;6.13;;
46455;SDS011;64052;47.466;9.094;2022-12-05T17:59:53;5.28;;;4.78;;
46455;SDS011;64052;47.466;9.094;2022-12-05T18:04:54;5.55;;;4.18;;
46455;SDS011;64052;47.466;9.094;2022-12-05T18:09:56;7.25;;;5.03;;
46455;SDS011;64052;47.466;9.094;2022-12-05T18:14:58;9.13;;;7.50;;
46455;SDS011;64052;47.466;9.094;2022-12-05T18:20:00;21.17;;;14.75;;
46455;SDS011;64052;47.466;9.094;2022-12-05T18:25:02;29.45;;;15.05;;
46455;SDS011;64052;47.466;9.094;2022-12-05T18:30:05;61.92;;;29.90;;
46455;SDS011;64052;47.466;9.094;2022-12-05T18:35:07;43.33;;;21.92;;
46455;SDS011;64052;47.466;9.094;2022-12-05T18:40:13;48.10;;;22.63;;
46455;SDS011;64052;47.466;9.094;2022-12-05T18:45:15;11.07;;;7.10;;
46455;SDS011;64052;47.466;9.094;2022-12-05T18:50:16;8.80;;;6.38;;
46455;SDS011;64052;47.466;9.094;2022-12-05T18:55:17;6.45;;;5.10;;
46455;SDS011;64052;47.466;9.094;2022-12-05T19:00:38;7.07;;;4.85;;
46455;SDS011;64052;47.466;9.094;2022-12-05T19:05:40;5.50;;;4.90;;
46455;SDS011;64052;47.466;9.094;2022-12-05T19:10:41;6.63;;;5.82;;
46455;SDS011;64052;47.466;9.094;2022-12-05T19:15:43;4.63;;;4.07;;
46455;SDS011;64052;47.466;9.094;2022-12-05T19:20:48;6.72;;;4.40;;
46455;SDS011;64052;47.466;9.094;2022-12-05T19:25:54;5.78;;;5.10;;
46455;SDS011;64052;47.466;9.094;2022-12-05T19:31:00;7.50;;;5.15;;
46455;SDS011;64052;47.466;9.094;2022-12-05T19:36:04;4.78;;;4.28;;
46455;SDS011;64052;47.466;9.094;2022-12-05T19:41:08;5.65;;;4.75;;
46455;SDS011;64052;47.466;9.094;2022-12-05T19:46:13;4.50;;;4.07;;
46455;SDS011;64052;47.466;9.094;2022-12-05T19:51:19;5.15;;;4.50;;
46455;SDS011;64052;47.466;9.094;2022-12-05T19:56:23;6.40;;;4.78;;
46455;SDS011;64052;47.466;9.094;2022-12-05T20:01:27;25.05;;;15.60;;
46455;SDS011;64052;47.466;9.094;2022-12-05T20:06:43;5.82;;;5.18;;
46455;SDS011;64052;47.466;9.094;2022-12-05T20:11:49;6.17;;;5.57;;
46455;SDS011;64052;47.466;9.094;2022-12-05T20:16:55;5.40;;;4.85;;
46455;SDS011;64052;47.466;9.094;2022-12-05T20:21:57;6.70;;;4.93;;
46455;SDS011;64052;47.466;9.094;2022-12-05T20:26:59;6.28;;;5.22;;
46455;SDS011;64052;47.466;9.094;2022-12-05T20:32:00;6.20;;;5.60;;
46455;SDS011;64052;47.466;9.094;2022-12-05T20:37:02;11.55;;;6.50;;
46455;SDS011;64052;47.466;9.094;2022-12-05T20:42:03;5.35;;;4.70;;
46455;SDS011;64052;47.466;9.094;2022-12-05T20:47:05;7.43;;;6.72;;
46455;SDS011;64052;47.466;9.094;2022-12-05T20:52:06;5.57;;;5.13;;
46455;SDS011;64052;47.466;9.094;2022-12-05T20:57:07;6.60;;;5.50;;
46455;SDS011;64052;47.466;9.094;2022-12-05T21:02:09;7.03;;;5.30;;
46455;SDS011;64052;47.466;9.094;2022-12-05T21:07:11;5.30;;;4.65;;
46455;SDS011;64052;47.466;9.094;2022-12-05T21:12:12;9.85;;;5.95;;
46455;SDS011;64052;47.466;9.094;2022-12-05T21:17:14;5.68;;;5.13;;
46455;SDS011;64052;47.466;9.094;2022-12-05T21:22:15;7.22;;;5.78;;
46455;SDS011;64052;47.466;9.094;2022-12-05T21:27:16;7.55;;;6.70;;
46455;SDS011;64052;47.466;9.094;2022-12-05T21:32:18;18.15;;;11.18;;
46455;SDS011;64052;47.466;9.094;2022-12-05T21:37:19;8.00;;;6.75;;
46455;SDS011;64052;47.466;9.094;2022-12-05T21:42:21;7.95;;;5.90;;
46455;SDS011;64052;47.466;9.094;2022-12-05T21:47:22;14.25;;;9.32;;
46455;SDS011;64052;47.466;9.094;2022-12-05T21:52:24;6.38;;;5.70;;
46455;SDS011;64052;47.466;9.094;2022-12-05T21:57:27;5.55;;;5.05;;
46455;SDS011;64052;47.466;9.094;2022-12-05T22:02:29;6.32;;;5.32;;
46455;SDS011;64052;47.466;9.094;2022-12-05T22:07:30;7.40;;;6.32;;
46455;SDS011;64052;47.466;9.094;2022-12-05T22:12:32;6.43;;;5.28;;
46455;SDS011;64052;47.466;9.094;2022-12-05T22:17:34;6.53;;;5.38;;
46455;SDS011;64052;47.466;9.094;2022-12-05T22:22:35;5.53;;;4.72;;
46455;SDS011;64052;47.466;9.094;2022-12-05T22:27:37;6.72;;;4.82;;
46455;SDS011;64052;47.466;9.094;2022-12-05T22:32:38;6.03;;;5.03;;
46455;SDS011;64052;47.466;9.094;2022-12-05T22:37:40;5.88;;;5.13;;
46455;SDS011;64052;47.466;9.094;2022-12-05T22:42:41;7.25;;;5.47;;
46455;SDS011;64052;47.466;9.094;2022-12-05T22:47:43;6.22;;;5.63;;
46455;SDS011;64052;47.466;9.094;2022-12-05T22:52:44;5.97;;;5.35;;
46455;SDS011;64052;47.466;9.094;2022-12-05T22:57:46;5.38;;;4.60;;
46455;SDS011;64052;47.466;9.094;2022-12-05T23:02:47;7.80;;;5.95;;
46455;SDS011;64052;47.466;9.094;2022-12-05T23:07:49;6.38;;;5.78;;
46455;SDS011;64052;47.466;9.094;2022-12-05T23:12:51;8.95;;;6.03;;
46455;SDS011;64052;47.466;9.094;2022-12-05T23:17:55;6.10;;;5.30;;
46455;SDS011;64052;47.466;9.094;2022-12-05T23:22:57;5.45;;;4.88;;
46455;SDS011;64052;47.466;9.094;2022-12-05T23:27:58;6.35;;;4.60;;
46455;SDS011;64052;47.466;9.094;2022-12-05T23:33:00;6.18;;;5.50;;
46455;SDS011;64052;47.466;9.094;2022-12-05T23:38:01;6.30;;;5.00;;
46455;SDS011;64052;47.466;9.094;2022-12-05T23:43:03;6.32;;;5.75;;
46455;SDS011;64052;47.466;9.094;2022-12-05T23:48:04;5.28;;;4.63;;
46455;SDS011;64052;47.466;9.094;2022-12-05T23:53:06;6.50;;;5.13;;
46455;SDS011;64052;47.466;9.094;2022-12-05T23:58:07;6.13;;;5.30;;
